Time;durP1;ratioP1;P1;durP2;ratioP2;P2;SDS_P1;SDS_P2;PMS_P1;PMS_P2;Temp;Humidity;BMP_temperature;BMP_pressure;BME280_temperature;BME280_humidity;BME280_pressure;Samples;Min_cycle;Max_cycle;Signal;HPM_P1;HPM_P2
2023/06/20 00:01:51;;;;;;;0.82;0.25;;;;;;;15.05;100.00;99255.41;7396014;19;20045;-55
2023/06/20 00:04:18;;;;;;;1.33;0.32;;;;;;;14.75;100.00;99260.19;7395070;19;20451;-55
2023/06/20 00:06:44;;;;;;;0.45;0.30;;;;;;;14.60;100.00;99253.38;7398199;19;20011;-55
2023/06/20 00:09:10;;;;;;;1.13;0.40;;;;;;;14.49;100.00;99254.22;7396362;19;20015;-55
2023/06/20 00:11:36;;;;;;;1.65;0.65;;;;;;;14.49;100.00;99251.41;7395305;19;20463;-55
2023/06/20 00:14:02;;;;;;;0.45;0.20;;;;;;;14.56;100.00;99258.50;7395257;19;20031;-55
2023/06/20 00:16:28;;;;;;;7.88;0.60;;;;;;;14.69;100.00;99262.25;7393278;19;20017;-55
2023/06/20 00:18:55;;;;;;;2.95;0.65;;;;;;;14.46;100.00;99258.06;7393934;19;20021;-55
2023/06/20 00:21:25;;;;;;;0.32;0.25;;;;;;;14.58;100.00;99256.72;7395677;19;20371;-54
2023/06/20 00:23:54;;;;;;;3.10;1.15;;;;;;;14.63;100.00;99252.38;7394702;19;20013;-55
2023/06/20 00:26:21;;;;;;;1.10;0.35;;;;;;;14.59;100.00;99252.66;7396049;19;20011;-54
2023/06/20 00:28:51;;;;;;;13.07;0.65;;;;;;;14.63;100.00;99258.72;7392820;19;20031;-55
2023/06/20 00:31:18;;;;;;;0.32;0.20;;;;;;;14.52;100.00;99244.00;7393556;19;20023;-55
2023/06/20 00:33:44;;;;;;;3.47;0.57;;;;;;;14.68;100.00;99255.16;7394450;19;20014;-55
2023/06/20 00:36:12;;;;;;;0.50;0.50;;;;;;;14.73;100.00;99248.72;7394983;19;20007;-55
2023/06/20 00:38:39;;;;;;;1.33;0.40;;;;;;;14.87;100.00;99250.44;7393988;19;20470;-55
2023/06/20 00:41:05;;;;;;;14.50;1.20;;;;;;;14.69;100.00;99245.44;7393002;19;20039;-55
2023/06/20 00:43:31;;;;;;;3.95;0.70;;;;;;;14.58;100.00;99242.69;7396191;19;20019;-55
2023/06/20 00:45:58;;;;;;;1.20;0.52;;;;;;;14.53;100.00;99246.28;7392918;19;20011;-55
2023/06/20 00:48:24;;;;;;;0.85;0.40;;;;;;;14.43;100.00;99245.06;7395495;19;20014;-55
2023/06/20 00:50:51;;;;;;;2.00;0.55;;;;;;;14.43;100.00;99236.66;7393761;19;20347;-54
2023/06/20 00:53:18;;;;;;;1.02;0.20;;;;;;;14.49;100.00;99240.19;7392897;19;20015;-54
2023/06/20 00:55:45;;;;;;;1.48;0.50;;;;;;;14.43;100.00;99228.25;7393557;19;20021;-54
2023/06/20 00:58:11;;;;;;;0.45;0.20;;;;;;;14.54;100.00;99228.22;7393076;19;20380;-55
2023/06/20 01:00:38;;;;;;;5.38;1.02;;;;;;;14.36;100.00;99223.19;7390511;19;20375;-56
2023/06/20 01:03:11;;;;;;;1.33;0.45;;;;;;;14.19;100.00;99222.50;7394630;19;20021;-57
2023/06/20 01:05:39;;;;;;;0.20;0.10;;;;;;;14.13;100.00;99221.75;7392729;19;20471;-57
2023/06/20 01:08:20;;;;;;;1.45;0.40;;;;;;;14.14;100.00;99226.09;7394333;19;20023;-56
2023/06/20 01:11:29;;;;;;;0.85;0.50;;;;;;;13.97;100.00;99219.78;7391605;19;20014;-56
2023/06/20 01:14:18;;;;;;;0.95;0.40;;;;;;;13.95;100.00;99222.31;7392708;19;20077;-56
2023/06/20 01:17:21;;;;;;;4.55;0.25;;;;;;;14.01;100.00;99220.28;7392100;19;20015;-56
2023/06/20 01:20:12;;;;;;;0.77;0.57;;;;;;;14.15;100.00;99213.59;7390149;19;20010;-56
2023/06/20 01:22:51;;;;;;;0.28;0.22;;;;;;;14.42;100.00;99205.09;7392108;19;20098;-57
2023/06/20 01:25:27;;;;;;;0.50;0.20;;;;;;;14.15;100.00;99214.38;7393994;19;20057;-56
2023/06/20 01:28:14;;;;;;;7.95;0.75;;;;;;;14.16;100.00;99209.53;7392519;19;20463;-56
2023/06/20 01:31:07;;;;;;;0.25;0.20;;;;;;;14.16;100.00;99196.28;7390108;19;20554;-56
2023/06/20 01:33:56;;;;;;;1.85;0.60;;;;;;;13.96;100.00;99195.84;7392263;19;20590;-56
2023/06/20 01:36:27;;;;;;;0.45;0.38;;;;;;;13.96;100.00;99191.03;7400706;19;20034;-56
2023/06/20 01:38:58;;;;;;;4.03;0.30;;;;;;;14.01;100.00;99190.22;7399380;19;20018;-57
2023/06/20 01:41:26;;;;;;;1.80;0.50;;;;;;;13.98;100.00;99187.72;7400376;19;20026;-57
2023/06/20 01:43:56;;;;;;;4.68;0.90;;;;;;;14.32;100.00;99189.09;7400262;19;20014;-57
2023/06/20 01:46:24;;;;;;;0.77;0.55;;;;;;;14.03;100.00;99195.34;7398044;19;20459;-57
2023/06/20 01:48:52;;;;;;;0.57;0.20;;;;;;;14.05;100.00;99196.34;7400465;19;20027;-57
2023/06/20 01:51:20;;;;;;;1.52;0.45;;;;;;;13.95;100.00;99183.91;7400275;19;20014;-56
2023/06/20 01:53:49;;;;;;;1.52;0.30;;;;;;;14.00;100.00;99190.75;7399618;19;20030;-57
2023/06/20 01:56:16;;;;;;;0.45;0.20;;;;;;;13.89;100.00;99176.78;7400285;19;20400;-57
2023/06/20 01:58:43;;;;;;;2.63;0.40;;;;;;;13.69;100.00;99184.25;7399493;19;20010;-56
2023/06/20 02:01:12;;;;;;;1.50;0.63;;;;;;;14.27;100.00;99181.47;7400242;19;20011;-57
2023/06/20 02:03:41;;;;;;;4.03;1.08;;;;;;;13.96;100.00;99182.63;7402194;19;20014;-57
2023/06/20 02:06:10;;;;;;;2.25;0.70;;;;;;;13.92;100.00;99178.56;7401144;19;20018;-57
2023/06/20 02:08:38;;;;;;;0.95;0.65;;;;;;;13.80;100.00;99182.66;7402790;19;20510;-57
2023/06/20 02:11:05;;;;;;;0.35;0.22;;;;;;;13.51;100.00;99189.63;7401948;19;20014;-56
2023/06/20 02:13:32;;;;;;;1.95;0.45;;;;;;;13.44;100.00;99187.34;7401817;19;20541;-56
2023/06/20 02:16:01;;;;;;;0.20;0.20;;;;;;;13.68;100.00;99188.31;7396098;19;20078;-56
2023/06/20 02:18:31;;;;;;;0.73;0.30;;;;;;;13.60;100.00;99192.91;7399272;19;20010;-57
2023/06/20 02:21:04;;;;;;;0.70;0.22;;;;;;;13.48;100.00;99199.03;7396923;19;20373;-57
2023/06/20 02:23:33;;;;;;;3.30;0.52;;;;;;;13.56;100.00;99198.00;7399016;19;20463;-56
2023/06/20 02:26:07;;;;;;;1.45;0.50;;;;;;;13.43;100.00;99194.97;7399228;19;20015;-56
2023/06/20 02:28:44;;;;;;;1.65;0.68;;;;;;;13.93;100.00;99180.09;7398840;19;20063;-57
2023/06/20 02:31:16;;;;;;;1.27;0.50;;;;;;;13.89;100.00;99183.16;7400615;19;20021;-56
2023/06/20 02:33:44;;;;;;;3.00;0.35;;;;;;;13.98;100.00;99182.88;7399042;19;20015;-56
2023/06/20 02:36:12;;;;;;;0.57;0.47;;;;;;;14.39;100.00;99177.34;7400120;19;20332;-56
2023/06/20 02:38:39;;;;;;;0.20;0.20;;;;;;;14.06;100.00;99167.06;7397953;19;20373;-57
2023/06/20 02:41:05;;;;;;;2.58;0.73;;;;;;;13.64;100.00;99178.66;7398535;19;20010;-56
2023/06/20 02:43:31;;;;;;;1.13;0.50;;;;;;;14.29;100.00;99190.16;7400005;19;20011;-57
2023/06/20 02:46:06;;;;;;;2.70;1.20;;;;;;;13.88;100.00;99181.63;7394868;19;20015;-56
2023/06/20 02:48:45;;;;;;;0.95;0.40;;;;;;;13.68;100.00;99182.72;7397174;19;20492;-56
2023/06/20 02:51:43;;;;;;;5.13;0.85;;;;;;;13.58;100.00;99192.66;7396360;19;20017;-56
2023/06/20 02:54:31;;;;;;;1.05;0.55;;;;;;;13.79;100.00;99193.13;7394720;19;20010;-56
2023/06/20 02:57:01;;;;;;;1.38;0.20;;;;;;;13.95;100.00;99205.53;7403154;19;20010;-57
2023/06/20 02:59:31;;;;;;;0.27;0.27;;;;;;;13.93;100.00;99210.88;7399325;19;20015;-56
2023/06/20 03:02:06;;;;;;;2.63;0.52;;;;;;;14.66;100.00;99196.03;7396356;19;20254;-56
2023/06/20 03:04:33;;;;;;;2.35;0.55;;;;;;;14.23;100.00;99178.16;7396623;19;20019;-57
2023/06/20 03:07:01;;;;;;;1.13;0.75;;;;;;;14.42;100.00;99157.47;7399411;19;20018;-57
2023/06/20 03:09:33;;;;;;;0.50;0.30;;;;;;;13.08;100.00;99166.06;7397533;19;20024;-57
2023/06/20 03:11:59;;;;;;;0.10;0.10;;;;;;;13.51;100.00;99189.63;7397180;19;20011;-56
2023/06/20 03:14:26;;;;;;;0.60;0.32;;;;;;;13.51;100.00;99184.03;7395827;19;20017;-57
2023/06/20 03:16:52;;;;;;;1.00;0.20;;;;;;;13.78;100.00;99182.44;7396487;19;20042;-56
2023/06/20 03:19:19;;;;;;;0.30;0.22;;;;;;;13.91;100.00;99194.59;7395559;19;20026;-56
2023/06/20 03:21:46;;;;;;;2.85;0.40;;;;;;;13.84;100.00;99194.38;7395360;19;20019;-57
2023/06/20 03:24:14;;;;;;;1.23;0.45;;;;;;;13.72;100.00;99187.28;7395000;19;20017;-56
2023/06/20 03:26:40;;;;;;;1.65;0.30;;;;;;;13.82;100.00;99197.69;7395537;19;20074;-56
2023/06/20 03:29:07;;;;;;;3.20;0.80;;;;;;;13.75;100.00;99203.06;7395457;19;20014;-56
2023/06/20 03:31:34;;;;;;;0.65;0.52;;;;;;;13.52;100.00;99203.09;7396146;19;20011;-56
2023/06/20 03:34:00;;;;;;;0.95;0.63;;;;;;;13.71;100.00;99214.50;7395735;19;20043;-57
2023/06/20 03:36:27;;;;;;;0.30;0.10;;;;;;;13.71;100.00;99208.16;7398746;19;20023;-57
2023/06/20 03:38:53;;;;;;;0.20;0.20;;;;;;;13.47;100.00;99203.88;7396478;19;20022;-57
2023/06/20 03:41:21;;;;;;;2.97;0.60;;;;;;;13.79;100.00;99197.97;7395627;19;20014;-56
2023/06/20 03:43:48;;;;;;;0.47;0.30;;;;;;;13.47;100.00;99189.88;7396519;19;20361;-56
2023/06/20 03:46:15;;;;;;;0.20;0.20;;;;;;;13.13;100.00;99194.00;7395128;19;20009;-57
2023/06/20 03:48:41;;;;;;;0.55;0.38;;;;;;;13.53;100.00;99187.84;7395388;19;20026;-57
2023/06/20 03:51:08;;;;;;;0.40;0.40;;;;;;;13.62;100.00;99179.16;7394539;19;20115;-57
2023/06/20 03:53:34;;;;;;;1.17;0.20;;;;;;;13.83;100.00;99176.06;7394096;19;20011;-57
2023/06/20 03:56:02;;;;;;;3.83;0.75;;;;;;;13.93;100.00;99174.47;7396547;19;20019;-56
2023/06/20 03:58:30;;;;;;;1.60;0.30;;;;;;;13.88;100.00;99172.50;7395153;19;20022;-57
2023/06/20 04:00:56;;;;;;;7.50;0.80;;;;;;;13.85;100.00;99176.31;7393492;19;20039;-57
2023/06/20 04:03:22;;;;;;;1.95;0.52;;;;;;;13.85;100.00;99173.50;7394731;19;20482;-57
2023/06/20 04:05:48;;;;;;;0.82;0.52;;;;;;;13.85;100.00;99170.72;7395833;19;20026;-57
2023/06/20 04:08:15;;;;;;;1.52;0.50;;;;;;;13.91;100.00;99171.44;7397860;19;20034;-57
2023/06/20 04:10:41;;;;;;;1.52;0.32;;;;;;;14.03;100.00;99156.13;7398082;19;20014;-56
2023/06/20 04:13:07;;;;;;;2.05;0.85;;;;;;;14.01;100.00;99159.44;7393930;19;20015;-56
2023/06/20 04:15:33;;;;;;;2.08;0.63;;;;;;;14.04;100.00;99154.84;7393262;19;20038;-56
2023/06/20 04:17:59;;;;;;;2.47;0.55;;;;;;;14.29;100.00;99150.94;7398154;19;20022;-57
2023/06/20 04:20:26;;;;;;;1.15;0.45;;;;;;;14.75;100.00;99147.31;7393115;19;20024;-57
2023/06/20 04:22:52;;;;;;;0.90;0.20;;;;;;;14.51;100.00;99136.78;7393500;19;20197;-57
2023/06/20 04:25:18;;;;;;;10.57;0.50;;;;;;;14.38;100.00;99136.59;7394958;19;20027;-57
2023/06/20 04:27:53;;;;;;;2.15;0.80;;;;;;;14.10;100.00;99144.38;7394193;19;20017;-56
2023/06/20 04:30:20;;;;;;;0.55;0.40;;;;;;;14.23;100.00;99148.13;7397519;19;20082;-57
2023/06/20 04:32:48;;;;;;;0.30;0.28;;;;;;;14.40;100.00;99140.41;7393377;19;20015;-57
2023/06/20 04:35:14;;;;;;;0.85;0.20;;;;;;;14.60;100.00;99133.66;7396130;19;20025;-57
2023/06/20 04:37:41;;;;;;;3.28;0.52;;;;;;;14.36;100.00;99127.97;7392629;19;20007;-57
2023/06/20 04:40:11;;;;;;;1.58;0.75;;;;;;;14.25;100.00;99125.97;7391305;19;20011;-57
2023/06/20 04:42:37;;;;;;;0.40;0.28;;;;;;;14.31;100.00;99131.56;7397660;19;20368;-57
2023/06/20 04:45:04;;;;;;;1.08;0.20;;;;;;;14.18;100.00;99122.97;7395108;19;20023;-57
2023/06/20 04:47:32;;;;;;;0.80;0.28;;;;;;;14.15;100.00;99124.75;7393540;19;20454;-57
2023/06/20 04:50:03;;;;;;;1.55;0.10;;;;;;;14.13;100.00;99127.31;7392364;19;20011;-57
2023/06/20 04:52:32;;;;;;;2.63;0.77;;;;;;;14.10;100.00;99133.16;7392180;19;20526;-57
2023/06/20 04:55:02;;;;;;;0.43;0.25;;;;;;;29.97;96.07;99084.59;7397350;19;20018;-57
2023/06/20 04:57:32;;;;;;;1.35;0.40;;;;;;;19.12;100.00;99100.69;7394127;19;20035;-57
2023/06/20 04:59:59;;;;;;;3.25;0.63;;;;;;;16.52;100.00;99100.41;7398141;19;20014;-57
2023/06/20 05:02:26;;;;;;;4.03;0.90;;;;;;;15.37;100.00;99111.81;7393857;19;20019;-57
2023/06/20 05:04:53;;;;;;;1.10;0.10;;;;;;;15.24;100.00;99115.28;7393270;19;20014;-57
2023/06/20 05:07:21;;;;;;;0.85;0.15;;;;;;;15.43;100.00;99115.31;7396448;19;20022;-57
2023/06/20 05:09:49;;;;;;;1.95;0.80;;;;;;;15.43;100.00;99115.31;7393156;19;20011;-57
2023/06/20 05:12:15;;;;;;;0.70;0.45;;;;;;;15.40;100.00;99117.13;7402097;19;20018;-57
2023/06/20 05:14:42;;;;;;;3.45;0.82;;;;;;;15.34;100.00;99118.47;7402529;19;20014;-57
2023/06/20 05:17:08;;;;;;;0.75;0.28;;;;;;;15.08;100.00;99125.34;7402746;19;20006;-56
2023/06/20 05:19:34;;;;;;;0.75;0.38;;;;;;;15.03;100.00;99128.97;7401277;19;20007;-57
2023/06/20 05:22:00;;;;;;;2.05;0.50;;;;;;;15.10;100.00;99134.00;7402263;19;20486;-57
2023/06/20 05:24:27;;;;;;;1.38;0.95;;;;;;;15.02;100.00;99130.25;7400443;19;20038;-54
2023/06/20 05:26:53;;;;;;;1.80;0.30;;;;;;;15.13;100.00;99144.19;7396309;19;20014;-56
2023/06/20 05:29:19;;;;;;;1.67;0.77;;;;;;;15.20;100.00;99137.97;7398490;19;20018;-53
2023/06/20 05:31:45;;;;;;;1.02;0.30;;;;;;;15.00;100.00;99135.63;7397841;19;20013;-53
2023/06/20 05:34:12;;;;;;;4.30;0.45;;;;;;;15.30;100.00;99135.59;7398503;19;20079;-56
2023/06/20 05:36:38;;;;;;;1.40;0.57;;;;;;;15.06;100.00;99144.00;7400323;19;20010;-55
2023/06/20 05:39:04;;;;;;;1.08;0.28;;;;;;;14.89;100.00;99138.53;7397121;19;20027;-55
2023/06/20 05:41:30;;;;;;;0.82;0.28;;;;;;;14.89;100.00;99138.53;7400478;19;20018;-55
2023/06/20 05:43:57;;;;;;;2.00;0.40;;;;;;;15.06;100.00;99138.38;7399704;19;20014;-55
2023/06/20 05:46:23;;;;;;;1.15;0.65;;;;;;;15.02;100.00;99149.13;7400395;19;20039;-55
2023/06/20 05:48:49;;;;;;;4.53;0.75;;;;;;;14.88;100.00;99144.66;7401084;19;20070;-55
2023/06/20 05:51:15;;;;;;;0.52;0.20;;;;;;;14.79;100.00;99145.72;7400534;19;20039;-59
2023/06/20 05:53:41;;;;;;;4.82;0.52;;;;;;;14.70;100.00;99140.47;7401333;19;20014;-55
2023/06/20 05:56:09;;;;;;;0.82;0.50;;;;;;;14.66;100.00;99151.19;7400340;19;20035;-56
2023/06/20 05:58:36;;;;;;;0.73;0.57;;;;;;;14.77;100.00;99156.72;7402650;19;20010;-56
2023/06/20 06:01:04;;;;;;;0.88;0.65;;;;;;;14.70;100.00;99157.28;7398069;19;20038;-56
2023/06/20 06:03:32;;;;;;;0.82;0.25;;;;;;;15.18;100.00;99148.97;7400437;19;20014;-56
2023/06/20 06:05:59;;;;;;;2.45;0.70;;;;;;;15.04;100.00;99152.16;7401122;19;20363;-56
2023/06/20 06:08:25;;;;;;;2.50;1.00;;;;;;;14.81;100.00;99154.38;7399792;19;20413;-56
2023/06/20 06:10:54;;;;;;;6.50;0.40;;;;;;;14.93;100.00;99153.03;7399610;19;20328;-56
2023/06/20 06:13:21;;;;;;;1.67;0.40;;;;;;;15.28;100.00;99157.03;7400535;19;20018;-56
2023/06/20 06:15:47;;;;;;;2.13;0.52;;;;;;;15.29;100.00;99153.72;7398394;19;20011;-56
2023/06/20 06:18:17;;;;;;;0.68;0.40;;;;;;;15.35;100.00;99150.88;7404044;19;19999;-58
2023/06/20 06:20:44;;;;;;;0.20;0.20;;;;;;;15.35;100.00;99153.66;7395132;19;20459;-60
2023/06/20 06:23:11;;;;;;;4.55;0.65;;;;;;;15.25;100.00;99160.88;7399034;19;20018;-57
2023/06/20 06:25:37;;;;;;;1.40;0.35;;;;;;;15.49;100.00;99158.13;7398106;19;20450;-60
2023/06/20 06:28:03;;;;;;;0.55;0.22;;;;;;;15.13;100.00;99161.03;7398925;19;20014;-60
2023/06/20 06:30:32;;;;;;;1.85;0.95;;;;;;;15.24;100.00;99165.00;7401460;19;20042;-60
2023/06/20 06:33:01;;;;;;;9.07;1.20;;;;;;;15.39;100.00;99154.91;7398314;19;20073;-60
2023/06/20 06:35:30;;;;;;;1.75;0.98;;;;;;;15.05;100.00;99168.47;7399677;19;20021;-59
2023/06/20 06:37:58;;;;;;;0.88;0.30;;;;;;;15.03;100.00;99173.84;7398183;19;20382;-60
2023/06/20 06:40:25;;;;;;;4.13;0.60;;;;;;;15.10;100.00;99172.50;7398069;19;20019;-60
2023/06/20 06:42:51;;;;;;;0.57;0.20;;;;;;;15.03;100.00;99170.25;7397125;19;20021;-60
2023/06/20 06:45:19;;;;;;;1.77;0.43;;;;;;;15.31;100.00;99167.22;7396964;19;20082;-60
2023/06/20 06:47:45;;;;;;;5.75;0.52;;;;;;;15.85;100.00;99162.34;7396990;19;20010;-60
2023/06/20 06:50:11;;;;;;;0.98;0.55;;;;;;;16.18;100.00;99167.53;7399038;19;20015;-60
2023/06/20 06:52:38;;;;;;;2.47;0.95;;;;;;;15.66;100.00;99167.13;7397621;19;20021;-60
2023/06/20 06:55:05;;;;;;;1.05;0.47;;;;;;;15.35;100.00;99178.91;7397078;19;20023;-60
2023/06/20 06:57:31;;;;;;;1.98;1.05;;;;;;;15.05;100.00;99184.56;7397670;19;20011;-61
2023/06/20 06:59:57;;;;;;;2.25;0.43;;;;;;;15.01;100.00;99187.63;7401291;19;20014;-60
2023/06/20 07:02:26;;;;;;;0.75;0.35;;;;;;;15.09;100.00;99194.19;7402280;19;20014;-60
2023/06/20 07:04:53;;;;;;;5.85;0.75;;;;;;;14.98;100.00;99187.91;7399991;19;20014;-60
2023/06/20 07:07:19;;;;;;;1.27;0.57;;;;;;;15.02;100.00;99183.53;7401750;19;20030;-60
2023/06/20 07:09:45;;;;;;;1.15;0.20;;;;;;;15.08;100.00;99177.88;7397232;19;20425;-60
2023/06/20 07:12:13;;;;;;;1.60;0.52;;;;;;;15.33;100.00;99167.47;7401937;19;20030;-56
2023/06/20 07:14:40;;;;;;;2.75;0.85;;;;;;;15.72;100.00;99173.47;7397621;19;20360;-56
2023/06/20 07:17:06;;;;;;;1.60;0.60;;;;;;;15.96;100.00;99179.03;7396301;19;20018;-56
2023/06/20 07:19:32;;;;;;;2.05;1.00;;;;;;;15.64;100.00;99170.47;7397145;19;20018;-56
2023/06/20 07:21:58;;;;;;;4.75;1.13;;;;;;;16.21;100.00;99174.13;7400594;19;20514;-56
2023/06/20 07:24:24;;;;;;;3.70;0.52;;;;;;;16.03;100.00;99161.59;7397410;19;20014;-55
2023/06/20 07:26:50;;;;;;;8.48;1.52;;;;;;;16.26;100.00;99156.44;7397463;19;20346;-56
2023/06/20 07:29:16;;;;;;;3.03;0.75;;;;;;;16.57;100.00;99153.72;7396817;19;20010;-55
2023/06/20 07:31:42;;;;;;;1.02;0.73;;;;;;;16.10;100.00;99143.38;7399297;19;20462;-56
2023/06/20 07:34:09;;;;;;;0.45;0.20;;;;;;;15.61;100.00;99142.72;7393734;19;20019;-56
2023/06/20 07:36:35;;;;;;;2.60;0.38;;;;;;;15.62;100.00;99139.38;7399272;19;20488;-56
2023/06/20 07:39:01;;;;;;;1.08;0.57;;;;;;;15.71;100.00;99135.44;7396767;19;20018;-56
2023/06/20 07:41:27;;;;;;;1.90;0.60;;;;;;;16.45;100.00;99145.97;7399897;19;20027;-56
2023/06/20 07:43:53;;;;;;;6.90;0.93;;;;;;;16.43;100.00;99137.31;7397145;19;20010;-56
2023/06/20 07:46:19;;;;;;;3.13;0.40;;;;;;;16.63;100.00;99139.59;7396097;19;20040;-56
2023/06/20 07:48:47;;;;;;;2.38;0.90;;;;;;;15.97;100.00;99135.63;7396323;19;20017;-56
2023/06/20 07:51:13;;;;;;;1.95;0.73;;;;;;;15.97;100.00;99140.47;7396122;19;20087;-56
2023/06/20 07:53:39;;;;;;;2.90;0.73;;;;;;;15.93;100.00;99135.94;7398402;19;20022;-56
2023/06/20 07:56:08;;;;;;;2.90;0.90;;;;;;;16.23;100.00;99123.78;7396748;19;20022;-56
2023/06/20 07:58:34;;;;;;;3.70;0.65;;;;;;;16.25;100.00;99116.34;7397884;19;20011;-56
2023/06/20 08:01:00;;;;;;;3.25;0.82;;;;;;;16.66;100.00;99118.81;7394477;19;20483;-56
2023/06/20 08:03:26;;;;;;;4.22;0.85;;;;;;;16.56;100.00;99101.63;7398148;19;20018;-56
2023/06/20 08:05:52;;;;;;;5.55;0.80;;;;;;;16.47;100.00;99109.66;7397315;19;20015;-56
2023/06/20 08:08:18;;;;;;;4.63;0.65;;;;;;;16.96;100.00;99098.91;7394805;19;20010;-56
2023/06/20 08:10:44;;;;;;;1.83;0.60;;;;;;;17.07;100.00;99101.53;7395716;19;20042;-56
2023/06/20 08:13:11;;;;;;;2.53;0.85;;;;;;;16.34;100.00;99106.78;7395983;19;20014;-56
2023/06/20 08:15:37;;;;;;;3.47;0.35;;;;;;;16.33;100.00;99108.81;7393968;19;20399;-56
2023/06/20 08:18:03;;;;;;;3.58;0.50;;;;;;;16.98;100.00;99091.44;7393850;19;20022;-56
2023/06/20 08:20:30;;;;;;;3.15;0.85;;;;;;;16.64;100.00;99096.88;7393753;19;20086;-57
2023/06/20 08:22:56;;;;;;;1.67;0.73;;;;;;;27.40;100.00;99040.31;7394717;19;20026;-57
2023/06/20 08:25:22;;;;;;;5.13;0.52;;;;;;;27.38;100.00;99031.63;7394427;19;20474;-56
2023/06/20 08:27:49;;;;;;;3.25;1.10;;;;;;;36.99;69.14;99019.47;7393671;19;20480;-56
2023/06/20 08:30:15;;;;;;;1.63;0.85;;;;;;;24.04;100.00;99025.25;7394293;19;20031;-57
2023/06/20 08:32:42;;;;;;;8.55;1.33;;;;;;;25.32;100.00;99025.34;7393825;19;20491;-57
2023/06/20 08:35:09;;;;;;;1.13;0.30;;;;;;;29.59;100.00;99002.69;7399414;19;20018;-57
2023/06/20 08:37:37;;;;;;;2.35;0.88;;;;;;;26.18;100.00;98998.94;7393746;19;20019;-57
2023/06/20 08:40:10;;;;;;;4.05;0.52;;;;;;;20.66;100.00;98998.44;7395067;19;20031;-57
2023/06/20 08:42:36;;;;;;;5.70;1.17;;;;;;;26.34;100.00;98977.22;7396469;19;20014;-57
2023/06/20 08:45:02;;;;;;;4.72;1.25;;;;;;;18.78;100.00;98978.69;7395919;19;20042;-57
2023/06/20 08:47:29;;;;;;;2.67;0.65;;;;;;;17.64;100.00;98984.50;7395732;19;20018;-57
2023/06/20 08:49:55;;;;;;;1.30;0.85;;;;;;;18.59;100.00;98975.34;7396041;19;20010;-57
2023/06/20 08:52:30;;;;;;;2.22;0.47;;;;;;;17.87;100.00;98977.06;7392809;19;20470;-56
2023/06/20 08:54:57;;;;;;;4.40;0.80;;;;;;;18.05;100.00;98976.91;7398229;19;20031;-56
2023/06/20 08:57:23;;;;;;;1.52;0.63;;;;;;;17.57;100.00;98966.22;7392643;19;20007;-56
2023/06/20 08:59:50;;;;;;;2.08;0.50;;;;;;;17.76;100.00;98957.63;7397390;19;20355;-57
2023/06/20 09:02:16;;;;;;;3.10;1.20;;;;;;;17.72;100.00;98966.41;7394335;19;20015;-56
2023/06/20 09:04:42;;;;;;;1.45;0.30;;;;;;;20.80;100.00;98977.13;7397725;19;20007;-56
2023/06/20 09:07:19;;;;;;;1.95;0.80;;;;;;;17.61;100.00;98975.09;7392494;19;20034;-56
2023/06/20 09:09:45;;;;;;;6.18;1.00;;;;;;;18.03;100.00;98961.84;7393687;19;20031;-56
2023/06/20 09:12:11;;;;;;;1.65;0.70;;;;;;;18.30;100.00;98973.75;7392111;19;20014;-57
2023/06/20 09:14:37;;;;;;;13.50;0.65;;;;;;;17.66;100.00;98982.66;7390243;19;20422;-83
2023/06/20 09:17:04;;;;;;;0.80;0.40;;;;;;;19.21;100.00;98987.25;7389254;19;20045;-83
2023/06/20 09:19:42;;;;;;;2.17;0.45;;;;;;;21.50;100.00;98973.59;7382947;19;20019;-83
2023/06/20 09:22:12;;;;;;;4.68;0.80;;;;;;;19.63;100.00;98982.97;7388322;19;20015;-85
2023/06/20 09:24:43;;;;;;;3.45;0.80;;;;;;;20.05;100.00;98979.88;7390738;19;20018;-86
2023/06/20 09:27:09;;;;;;;;;;;;;;;20.38;100.00;98988.06;7392569;19;20015;-86
2023/06/20 09:29:49;;;;;;;0.80;0.35;;;;;;;32.74;100.00;98971.72;7390725;19;20246;-88
2023/06/20 09:32:20;;;;;;;0.50;0.30;;;;;;;38.81;61.63;98954.22;7391439;19;20038;-86
2023/06/20 09:34:46;;;;;;;1.52;0.30;;;;;;;35.27;68.47;98957.38;7393525;19;20006;-88
2023/06/20 09:37:15;;;;;;;0.65;0.30;;;;;;;33.98;83.15;98966.94;7394564;19;20011;-87
2023/06/20 09:39:41;;;;;;;1.58;0.40;;;;;;;24.46;100.00;98973.06;7389914;19;20021;-86
2023/06/20 09:42:12;;;;;;;0.82;0.40;;;;;;;24.39;100.00;98957.59;7390561;19;20389;-87
2023/06/20 09:44:40;;;;;;;1.95;0.32;;;;;;;40.35;57.54;98946.69;7393337;19;20010;-86
2023/06/20 09:47:07;;;;;;;1.48;0.40;;;;;;;35.67;60.75;98955.13;7392359;19;20437;-86
2023/06/20 09:49:39;;;;;;;0.77;0.43;;;;;;;28.72;98.10;98962.31;7390610;19;20022;-86
2023/06/20 09:52:14;;;;;;;2.22;0.95;;;;;;;21.13;100.00;98958.22;7391400;19;20027;-86
2023/06/20 09:54:51;;;;;;;0.95;0.20;;;;;;;22.58;100.00;98954.81;7391606;19;20022;-87
2023/06/20 09:57:25;;;;;;;1.38;0.30;;;;;;;26.14;100.00;98948.00;7395589;19;20018;-86
2023/06/20 09:59:54;;;;;;;1.75;0.35;;;;;;;19.12;100.00;98936.97;7402579;19;20090;-86
2023/06/20 10:02:24;;;;;;;1.05;0.40;;;;;;;18.33;100.00;98944.47;7398377;19;20497;-87
2023/06/20 10:04:51;;;;;;;0.95;0.32;;;;;;;18.15;100.00;98957.44;7399001;19;20011;-87
2023/06/20 10:07:18;;;;;;;1.67;0.55;;;;;;;17.96;100.00;98957.66;7402943;19;20099;-86
2023/06/20 10:09:45;;;;;;;0.93;0.20;;;;;;;17.99;100.00;98967.84;7397493;19;20022;-85
2023/06/20 10:12:13;;;;;;;1.98;0.40;;;;;;;17.88;100.00;98968.09;7396874;19;20010;-86
2023/06/20 10:14:39;;;;;;;0.55;0.28;;;;;;;17.89;100.00;98968.81;7400048;19;20014;-86
2023/06/20 10:17:09;;;;;;;1.35;0.57;;;;;;;17.76;100.00;98966.81;7395840;19;20014;-86
2023/06/20 10:19:50;;;;;;;1.55;0.20;;;;;;;18.05;100.00;98976.16;7395306;19;20011;-85
2023/06/20 10:22:37;;;;;;;3.15;0.57;;;;;;;17.72;100.00;98969.22;7397239;19;20342;-84
2023/06/20 10:25:14;;;;;;;2.10;0.80;;;;;;;17.73;100.00;98967.94;7398520;19;20011;-85
2023/06/20 10:27:42;;;;;;;1.02;0.20;;;;;;;17.34;100.00;98968.75;7397686;19;20018;-85
2023/06/20 10:30:11;;;;;;;0.95;0.20;;;;;;;17.47;100.00;98965.16;7396713;19;20014;-84
2023/06/20 10:33:07;;;;;;;1.20;0.38;;;;;;;17.67;100.00;98972.91;7397313;19;20022;-85
2023/06/20 10:35:33;;;;;;;0.75;0.55;;;;;;;17.87;100.00;98960.94;7395838;19;20019;-85
2023/06/20 10:38:08;;;;;;;1.35;0.35;;;;;;;17.92;100.00;98953.66;7395612;19;20018;-85
2023/06/20 10:40:36;;;;;;;0.63;0.30;;;;;;;17.92;100.00;98956.47;7393543;19;20014;-85
2023/06/20 10:43:15;;;;;;;3.22;0.55;;;;;;;17.66;100.00;98959.38;7394234;19;20014;-84
2023/06/20 10:45:53;;;;;;;0.82;0.35;;;;;;;17.14;100.00;98971.47;7394816;19;20321;-85
2023/06/20 10:48:20;;;;;;;6.80;0.63;;;;;;;17.70;100.00;98969.00;7394731;19;20453;-86
2023/06/20 10:50:46;;;;;;;3.35;0.57;;;;;;;17.72;100.00;98963.59;7395151;19;20023;-84
2023/06/20 10:53:14;;;;;;;1.50;0.20;;;;;;;17.69;100.00;98973.16;7396926;19;20512;-82
2023/06/20 10:55:40;;;;;;;3.95;0.43;;;;;;;17.13;100.00;98972.78;7396770;19;20010;-83
2023/06/20 10:58:06;;;;;;;2.10;0.25;;;;;;;17.07;100.00;98974.91;7393944;19;20342;-83
2023/06/20 11:00:33;;;;;;;0.65;0.45;;;;;;;16.84;100.00;98979.47;7392381;19;20022;-83
2023/06/20 11:02:59;;;;;;;0.85;0.15;;;;;;;16.83;100.00;98984.31;7394919;19;20021;-82
2023/06/20 11:05:29;;;;;;;1.40;0.28;;;;;;;16.95;100.00;98979.25;7395158;19;20022;-84
2023/06/20 11:07:55;;;;;;;;;;;;;;;16.92;100.00;98978.28;7395341;19;20338;-85
2023/06/20 11:10:36;;;;;;;0.88;0.57;;;;;;;17.26;100.00;98969.94;7393641;19;19940;-82
2023/06/20 11:16:02;;;;;;;0.80;0.20;;;;;;;18.58;100.00;98960.47;7395249;19;20132;-60
2023/06/20 11:18:28;;;;;;;0.95;0.10;;;;;;;18.35;100.00;98953.88;7396467;19;20336;-60
2023/06/20 11:20:56;;;;;;;0.85;0.40;;;;;;;25.06;100.00;98931.44;7394484;19;20469;-61
2023/06/20 11:23:34;;;;;;;0.32;0.20;;;;;;;19.62;100.00;98941.16;7394740;19;20007;-61
2023/06/20 11:26:01;;;;;;;1.85;0.20;;;;;;;19.71;100.00;98942.69;7394338;19;20014;-61
2023/06/20 11:28:27;;;;;;;0.17;0.17;;;;;;;18.61;100.00;98948.09;7394615;19;20490;-62
2023/06/20 11:30:53;;;;;;;1.02;0.47;;;;;;;19.36;100.00;98947.81;7395668;19;20017;-62
2023/06/20 11:33:19;;;;;;;0.40;0.10;;;;;;;23.20;100.00;98935.84;7395323;19;20003;-61
2023/06/20 11:35:51;;;;;;;2.65;0.60;;;;;;;17.92;100.00;98953.66;7399330;19;20339;-62
2023/06/20 11:38:20;;;;;;;0.25;0.10;;;;;;;17.59;100.00;98958.00;7394264;19;20347;-58